Terminal Aerodrome Forecast
Issued by NWS Cleveland, OH

Home | Current Version | Previous Version | Graphics & Text | Print | Product List | Glossary On
Versions: 1 2 3 4 5 6 7 8 9 10 11 12 13 14 15 16
000
FTUS41 KCLE 281139
TAFMFD
TAF
KMFD 281139Z 2812/2912 15005KT P6SM VCSH BKN045 OVC100
     FM281800 16004KT P6SM SCT060 OVC150
     FM290000 VRB03KT P6SM SCT050 BKN150=

USA.gov is the U.S. government's official web portal to all federal, state and local government web resources and services.